Time;durP1;ratioP1;P1;durP2;ratioP2;P2;SDS_P1;SDS_P2;PMS_P1;PMS_P2;Temp;Humidity;BMP_temperature;BMP_pressure;BME280_temperature;BME280_humidity;BME280_pressure;Samples;Min_cycle;Max_cycle;Signal;HPM_P1;HPM_P2
2023/12/25 00:02:47;;;;;;;2.00;1.90;;;11.50;99.90;;;;;;10449248;28;20326;-80
2023/12/25 00:07:50;;;;;;;1.77;1.67;;;11.50;99.90;;;;;;10474334;28;20220;-80
2023/12/25 00:12:53;;;;;;;2.90;2.70;;;11.50;99.90;;;;;;10465885;28;20216;-80
2023/12/25 00:17:55;;;;;;;1.67;1.57;;;11.50;99.80;;;;;;10473521;28;20213;-80
2023/12/25 00:23:00;;;;;;;2.27;2.10;;;11.50;99.90;;;;;;10465104;28;20645;-80
2023/12/25 00:28:02;;;;;;;2.17;2.07;;;11.60;99.60;;;;;;10475628;28;20225;-79
2023/12/25 00:33:05;;;;;;;1.50;1.40;;;11.60;99.30;;;;;;10468691;28;20197;-80
2023/12/25 00:38:08;;;;;;;2.10;1.90;;;11.60;99.30;;;;;;10472778;28;20229;-80
2023/12/25 00:43:11;;;;;;;1.80;1.70;;;11.60;99.70;;;;;;10463297;28;20205;-80
2023/12/25 00:48:13;;;;;;;2.13;1.93;;;11.60;98.80;;;;;;10452692;28;20221;-80
2023/12/25 00:53:17;;;;;;;1.70;1.60;;;11.70;98.70;;;;;;10461704;28;20196;-80
2023/12/25 00:58:20;;;;;;;1.53;1.43;;;11.70;98.20;;;;;;10489492;28;20209;-80
2023/12/25 01:03:22;;;;;;;1.70;1.60;;;11.70;98.60;;;;;;10503151;28;20188;-80
2023/12/25 01:08:26;;;;;;;1.63;1.53;;;11.60;98.80;;;;;;10495036;28;20670;-80
2023/12/25 01:13:28;;;;;;;1.63;1.53;;;11.70;98.40;;;;;;10476887;28;20192;-80
2023/12/25 01:18:31;;;;;;;1.70;1.60;;;11.60;98.50;;;;;;10503730;28;20208;-79
2023/12/25 01:23:34;;;;;;;1.90;1.80;;;11.60;98.60;;;;;;10503522;28;20636;-79
2023/12/25 01:28:37;;;;;;;2.30;1.87;;;11.60;98.10;;;;;;10503218;28;20224;-80
2023/12/25 01:33:39;;;;;;;10.17;7.50;;;11.60;98.20;;;;;;10485725;28;20197;-80
2023/12/25 01:38:43;;;;;;;2.03;1.83;;;11.60;98.20;;;;;;10456693;28;20753;-79
2023/12/25 01:43:45;;;;;;;1.90;1.60;;;11.50;98.30;;;;;;10462643;28;20239;-79
2023/12/25 01:48:50;;;;;;;1.70;1.60;;;11.40;97.80;;;;;;10482304;28;20219;-79
2023/12/25 01:53:55;;;;;;;1.90;1.80;;;11.40;97.70;;;;;;10499762;28;20604;-79
2023/12/25 01:58:57;;;;;;;1.77;1.67;;;11.40;97.10;;;;;;10500685;28;20737;-79
2023/12/25 02:03:59;;;;;;;2.13;2.00;;;11.40;96.90;;;;;;10480407;28;20235;-79
2023/12/25 02:09:03;;;;;;;2.10;2.00;;;11.40;97.20;;;;;;10485730;28;20209;-79
2023/12/25 02:14:06;;;;;;;2.03;1.80;;;11.30;97.30;;;;;;10484590;28;20227;-79
2023/12/25 02:19:20;;;;;;;1.80;1.70;;;11.20;97.20;;;;;;10485016;28;20193;-80
2023/12/25 02:24:30;;;;;;;1.80;1.70;;;11.20;97.30;;;;;;10483235;28;20224;-80
2023/12/25 02:29:34;;;;;;;1.73;1.63;;;11.20;97.30;;;;;;10482231;28;20220;-80
2023/12/25 02:34:37;;;;;;;1.70;1.70;;;11.20;97.10;;;;;;10482629;28;20228;-80
2023/12/25 02:39:39;;;;;;;1.83;1.60;;;11.20;96.70;;;;;;10482033;28;20243;-79
2023/12/25 02:44:43;;;;;;;1.80;1.70;;;11.20;96.90;;;;;;10500552;28;20228;-79
2023/12/25 02:49:46;;;;;;;2.07;1.70;;;11.20;97.10;;;;;;10482181;28;20697;-79
2023/12/25 02:54:48;;;;;;;1.73;1.63;;;11.20;96.50;;;;;;10500025;28;20239;-80
2023/12/25 02:59:52;;;;;;;1.63;1.60;;;11.20;97.10;;;;;;10500365;28;20624;-80
2023/12/25 03:04:54;;;;;;;1.40;1.40;;;11.20;96.60;;;;;;10481345;28;20213;-79
2023/12/25 03:09:56;;;;;;;1.53;1.53;;;11.10;96.80;;;;;;10481435;28;20216;-79
2023/12/25 03:15:01;;;;;;;2.20;2.10;;;11.10;96.20;;;;;;10481337;28;20697;-79
2023/12/25 03:20:04;;;;;;;3.03;1.70;;;11.10;96.00;;;;;;10498962;28;20200;-79
2023/12/25 03:25:07;;;;;;;1.70;1.60;;;11.10;95.60;;;;;;10479712;28;20259;-79
2023/12/25 03:30:11;;;;;;;2.27;1.90;;;11.10;96.10;;;;;;10480788;28;20216;-80
2023/12/25 03:35:14;;;;;;;1.60;1.57;;;11.10;95.20;;;;;;10479967;28;20217;-79
2023/12/25 03:40:17;;;;;;;4.47;1.90;;;11.10;95.80;;;;;;10493843;28;20219;-79
2023/12/25 03:45:20;;;;;;;1.70;1.63;;;11.00;95.80;;;;;;10454358;28;20212;-79
2023/12/25 03:50:23;;;;;;;1.80;1.70;;;11.00;95.90;;;;;;10497306;28;20689;-79
2023/12/25 03:55:25;;;;;;;1.90;1.80;;;11.00;95.60;;;;;;10496664;28;20831;-79
2023/12/25 04:00:29;;;;;;;1.73;1.63;;;11.00;96.10;;;;;;10479337;28;20250;-79
2023/12/25 04:05:32;;;;;;;2.80;1.93;;;11.00;95.50;;;;;;10478882;28;20566;-79
2023/12/25 04:10:34;;;;;;;1.50;1.40;;;11.10;95.10;;;;;;10481226;28;20262;-80
2023/12/25 04:15:38;;;;;;;1.87;1.77;;;11.00;95.40;;;;;;10480876;28;20216;-79
2023/12/25 04:20:40;;;;;;;2.57;1.50;;;11.10;95.40;;;;;;10482241;28;20239;-79
2023/12/25 04:25:42;;;;;;;1.70;1.60;;;11.10;95.20;;;;;;10476897;28;20266;-79
2023/12/25 04:30:46;;;;;;;1.63;1.53;;;11.10;95.40;;;;;;10495702;28;20661;-79
2023/12/25 04:35:49;;;;;;;1.80;1.70;;;11.10;95.30;;;;;;10477459;28;20229;-79
2023/12/25 04:40:51;;;;;;;1.40;1.30;;;11.10;95.50;;;;;;10477812;28;20208;-80
2023/12/25 04:45:55;;;;;;;1.60;1.50;;;11.00;95.60;;;;;;10477093;28;20223;-80
2023/12/25 04:50:57;;;;;;;1.70;1.60;;;11.10;94.70;;;;;;10493930;28;20751;-80
2023/12/25 04:56:00;;;;;;;1.50;1.40;;;11.00;95.60;;;;;;10477262;28;20241;-79
2023/12/25 05:01:04;;;;;;;1.50;1.50;;;11.00;95.00;;;;;;10476999;28;20254;-79
2023/12/25 05:06:06;;;;;;;1.50;1.50;;;11.10;94.70;;;;;;10460393;28;20262;-80
2023/12/25 05:11:08;;;;;;;1.77;1.67;;;11.00;94.50;;;;;;10481626;28;20220;-79
2023/12/25 05:16:12;;;;;;;2.10;1.60;;;11.00;94.80;;;;;;10481855;28;20285;-79
2023/12/25 05:21:15;;;;;;;1.60;1.50;;;10.90;94.60;;;;;;10499716;28;20185;-79
2023/12/25 05:26:17;;;;;;;1.60;1.50;;;10.90;95.10;;;;;;10493993;28;20224;-80
2023/12/25 05:31:21;;;;;;;2.20;1.70;;;10.80;95.20;;;;;;10494557;28;20717;-79
2023/12/25 05:36:23;;;;;;;1.30;1.30;;;10.90;94.20;;;;;;10492060;28;20224;-79
2023/12/25 05:41:26;;;;;;;1.20;1.20;;;10.90;94.80;;;;;;10467668;28;20720;-79
2023/12/25 05:46:30;;;;;;;1.70;1.60;;;10.90;94.80;;;;;;10482059;28;20771;-79
2023/12/25 05:51:32;;;;;;;1.70;1.50;;;10.80;94.70;;;;;;10482076;28;20216;-79
2023/12/25 05:56:34;;;;;;;1.73;1.63;;;10.90;94.70;;;;;;10501136;28;20235;-79
2023/12/25 06:01:38;;;;;;;1.20;1.20;;;10.90;94.30;;;;;;10504573;28;20200;-79
2023/12/25 06:06:41;;;;;;;1.80;1.70;;;10.90;94.40;;;;;;10509110;28;20634;-79
2023/12/25 06:11:43;;;;;;;1.60;1.50;;;10.90;94.90;;;;;;10500402;28;20626;-79
2023/12/25 06:16:47;;;;;;;1.57;1.57;;;10.90;94.80;;;;;;10499827;28;20204;-79
2023/12/25 06:21:49;;;;;;;1.87;1.77;;;10.90;94.60;;;;;;10500299;28;20181;-80
2023/12/25 06:26:51;;;;;;;1.80;1.70;;;11.00;95.00;;;;;;10498852;28;20597;-79
2023/12/25 06:31:55;;;;;;;2.00;1.90;;;11.00;94.80;;;;;;10497085;28;20216;-80
2023/12/25 06:36:57;;;;;;;1.70;1.60;;;11.10;94.20;;;;;;10501056;28;20216;-79
2023/12/25 06:42:00;;;;;;;1.70;1.60;;;11.10;94.10;;;;;;10481603;28;20181;-79
2023/12/25 06:47:04;;;;;;;1.63;1.53;;;11.10;93.90;;;;;;10487736;28;20722;-80
2023/12/25 06:52:07;;;;;;;1.50;1.40;;;11.10;94.00;;;;;;10499002;28;20217;-81
2023/12/25 06:57:11;;;;;;;2.37;1.80;;;11.20;93.50;;;;;;10480585;28;20213;-80
2023/12/25 07:02:15;;;;;;;1.70;1.60;;;11.20;93.70;;;;;;10443922;28;20204;-80
2023/12/25 07:07:17;;;;;;;2.27;2.17;;;11.10;93.50;;;;;;10436627;28;20221;-80
2023/12/25 07:12:19;;;;;;;1.80;1.70;;;11.10;92.90;;;;;;10461101;28;20262;-80
2023/12/25 07:17:23;;;;;;;1.90;1.80;;;11.10;93.40;;;;;;10498674;28;20250;-81
2023/12/25 07:22:27;;;;;;;1.60;1.60;;;11.00;93.00;;;;;;10498686;28;20188;-81
2023/12/25 07:27:29;;;;;;;1.80;1.70;;;11.00;93.10;;;;;;10498205;28;20220;-81
2023/12/25 07:32:33;;;;;;;2.03;1.93;;;11.00;93.20;;;;;;10497509;28;20216;-80
2023/12/25 07:37:35;;;;;;;2.00;1.90;;;11.00;94.00;;;;;;10498102;28;20583;-80
2023/12/25 07:42:38;;;;;;;1.87;1.70;;;11.00;93.50;;;;;;10495885;28;20576;-80
2023/12/25 07:47:41;;;;;;;3.23;1.80;;;11.00;93.90;;;;;;10497082;28;20216;-80
2023/12/25 07:52:44;;;;;;;1.60;1.53;;;11.00;94.30;;;;;;10476381;28;20220;-81
2023/12/25 07:57:46;;;;;;;1.93;1.83;;;11.00;94.50;;;;;;10457482;28;20225;-80
2023/12/25 08:02:50;;;;;;;1.93;1.83;;;11.00;94.80;;;;;;10496112;28;20203;-79
2023/12/25 08:07:52;;;;;;;2.10;2.00;;;11.00;94.40;;;;;;10477706;28;20294;-80
2023/12/25 08:12:55;;;;;;;1.83;1.73;;;11.00;93.50;;;;;;10477891;28;20228;-79
2023/12/25 08:18:00;;;;;;;2.30;2.20;;;11.00;93.60;;;;;;10493869;28;20614;-79
2023/12/25 08:23:02;;;;;;;2.40;2.30;;;11.10;93.60;;;;;;10491903;28;20620;-78
2023/12/25 08:28:05;;;;;;;1.87;1.77;;;11.10;94.30;;;;;;10493677;28;20250;-80
2023/12/25 08:33:09;;;;;;;2.23;2.03;;;11.20;93.80;;;;;;10496437;28;20274;-80
2023/12/25 08:38:11;;;;;;;1.83;1.73;;;11.10;93.80;;;;;;10496529;28;20221;-81
2023/12/25 08:43:14;;;;;;;1.90;1.80;;;11.20;93.40;;;;;;10401299;28;20248;-80
2023/12/25 08:48:17;;;;;;;1.87;1.77;;;11.30;93.60;;;;;;10497005;28;20208;-82
2023/12/25 08:53:20;;;;;;;2.00;1.90;;;11.40;93.40;;;;;;10496985;28;20220;-81
2023/12/25 08:58:22;;;;;;;1.87;1.80;;;11.50;93.30;;;;;;10499012;28;20209;-81
2023/12/25 09:03:26;;;;;;;2.10;1.90;;;11.60;93.20;;;;;;10503333;28;20201;-81
2023/12/25 09:08:28;;;;;;;1.93;1.83;;;11.70;93.50;;;;;;10482282;28;20756;-82
2023/12/25 09:13:31;;;;;;;2.30;2.10;;;11.80;93.40;;;;;;10460330;28;20225;-81
2023/12/25 09:18:35;;;;;;;1.90;1.80;;;11.70;93.90;;;;;;10461184;28;20255;-81
2023/12/25 09:23:37;;;;;;;1.90;1.77;;;11.80;93.60;;;;;;10451261;28;20185;-81
2023/12/25 09:28:39;;;;;;;2.60;2.50;;;11.90;94.10;;;;;;10462846;28;20555;-81
2023/12/25 09:33:43;;;;;;;2.00;1.90;;;11.90;93.80;;;;;;10470559;28;20635;-81
2023/12/25 09:38:46;;;;;;;2.00;1.90;;;11.90;94.30;;;;;;10443212;28;20193;-83
2023/12/25 09:43:48;;;;;;;1.57;1.47;;;12.00;94.00;;;;;;10452126;28;20201;-82
2023/12/25 09:48:53;;;;;;;2.10;2.00;;;11.90;94.60;;;;;;10465006;28;20206;-82
2023/12/25 09:53:55;;;;;;;2.40;2.10;;;11.90;94.80;;;;;;10472698;28;20213;-82
2023/12/25 09:58:58;;;;;;;2.00;1.90;;;11.90;94.80;;;;;;10446879;28;20212;-82
2023/12/25 10:04:04;;;;;;;2.00;1.90;;;11.90;95.00;;;;;;10478982;28;20221;-82
2023/12/25 10:09:06;;;;;;;1.93;1.83;;;11.90;95.30;;;;;;10465868;28;20197;-82
2023/12/25 10:14:08;;;;;;;1.57;1.50;;;11.90;95.40;;;;;;10455028;28;20233;-81
2023/12/25 10:19:12;;;;;;;1.70;1.60;;;11.90;96.00;;;;;;10454193;28;20212;-81
2023/12/25 10:24:15;;;;;;;2.13;2.03;;;11.80;96.40;;;;;;10467293;28;20233;-81
2023/12/25 10:29:18;;;;;;;2.10;2.00;;;11.70;97.00;;;;;;10475258;28;20267;-82
2023/12/25 10:34:22;;;;;;;2.30;2.20;;;11.60;97.20;;;;;;10467888;28;20279;-82
2023/12/25 10:39:30;;;;;;;4.40;3.80;;;11.60;97.40;;;;;;10463329;28;20201;-82
2023/12/25 10:44:33;;;;;;;2.00;1.93;;;11.70;97.70;;;;;;10456057;28;21032;-82
2023/12/25 10:49:39;;;;;;;1.83;1.50;;;11.90;97.60;;;;;;10458351;28;20197;-82
2023/12/25 10:54:45;;;;;;;1.90;1.80;;;12.00;97.70;;;;;;10451864;28;20217;-82
2023/12/25 10:59:47;;;;;;;1.83;1.73;;;12.10;98.00;;;;;;10454701;28;20872;-82
2023/12/25 11:04:51;;;;;;;2.00;1.90;;;12.30;97.70;;;;;;10467475;28;20217;-82
2023/12/25 11:09:54;;;;;;;1.80;1.70;;;12.40;97.60;;;;;;10468101;28;20713;-83
2023/12/25 11:14:57;;;;;;;1.90;1.80;;;12.40;97.90;;;;;;10458626;28;20275;-81
2023/12/25 11:20:04;;;;;;;1.70;1.60;;;12.60;98.30;;;;;;10467004;28;20251;-81
2023/12/25 11:25:13;;;;;;;2.10;2.00;;;12.80;97.90;;;;;;10468062;28;20232;-82
2023/12/25 11:30:17;;;;;;;1.90;1.80;;;12.90;98.10;;;;;;10464681;28;20197;-82
2023/12/25 11:35:28;;;;;;;1.60;1.50;;;12.90;98.10;;;;;;10464954;28;20217;-82
2023/12/25 11:40:39;;;;;;;2.10;2.00;;;13.00;98.00;;;;;;10445561;28;20697;-82
2023/12/25 11:45:44;;;;;;;1.93;1.83;;;12.90;98.10;;;;;;10463954;28;20221;-82
2023/12/25 11:50:59;;;;;;;1.40;1.40;;;12.80;98.20;;;;;;10442732;28;20201;-82
2023/12/25 11:56:02;;;;;;;1.90;1.80;;;12.80;98.50;;;;;;10463265;28;20224;-81
2023/12/25 12:01:05;;;;;;;2.10;2.00;;;12.90;98.20;;;;;;10459224;28;20201;-82
2023/12/25 12:06:09;;;;;;;1.70;1.70;;;12.80;98.30;;;;;;10466029;28;20209;-82
2023/12/25 12:11:13;;;;;;;1.47;1.47;;;12.70;98.20;;;;;;10458649;28;20208;-81
2023/12/25 12:16:15;;;;;;;1.50;1.50;;;12.70;98.30;;;;;;10444314;28;20641;-82
2023/12/25 12:21:19;;;;;;;1.70;1.70;;;12.70;98.70;;;;;;10456905;28;20201;-81
2023/12/25 12:26:21;;;;;;;1.80;1.80;;;12.70;98.40;;;;;;10442969;28;20275;-81
2023/12/25 12:31:25;;;;;;;1.80;1.70;;;12.60;98.60;;;;;;10458748;28;20197;-81
2023/12/25 12:36:28;;;;;;;2.13;1.70;;;12.60;98.70;;;;;;10457521;28;20275;-80
2023/12/25 12:41:32;;;;;;;1.67;1.60;;;12.60;99.00;;;;;;10459001;28;20202;-82
2023/12/25 12:46:35;;;;;;;1.80;1.70;;;12.50;99.20;;;;;;10528740;22;20220;-83
2023/12/25 12:51:39;;;;;;;1.40;1.40;;;12.50;99.30;;;;;;10515311;28;20193;-82
2023/12/25 12:56:41;;;;;;;1.50;1.50;;;12.60;99.60;;;;;;10515241;28;20238;-84
2023/12/25 13:01:43;;;;;;;1.40;1.40;;;12.60;99.60;;;;;;10526704;28;20188;-83
2023/12/25 13:06:47;;;;;;;1.50;1.40;;;12.60;99.70;;;;;;10523517;28;20294;-81
2023/12/25 13:11:50;;;;;;;1.73;1.63;;;12.50;99.80;;;;;;10522816;28;20216;-83
2023/12/25 13:16:52;;;;;;;1.80;1.70;;;12.40;99.90;;;;;;10533901;28;20223;-83
2023/12/25 13:21:56;;;;;;;1.53;1.47;;;12.30;99.90;;;;;;10537462;28;20286;-81
2023/12/25 13:27:03;;;;;;;1.80;1.70;;;12.30;99.90;;;;;;10520926;28;20277;-80
2023/12/25 13:32:06;;;;;;;1.57;1.57;;;12.30;99.90;;;;;;10527733;28;20736;-83
2023/12/25 13:37:10;;;;;;;1.50;1.50;;;12.30;99.90;;;;;;10536829;28;20213;-84
2023/12/25 13:42:12;;;;;;;1.90;1.80;;;12.30;99.90;;;;;;10510723;28;20193;-83
2023/12/25 13:47:14;;;;;;;1.70;1.70;;;12.30;99.90;;;;;;10537353;28;20228;-81
2023/12/25 13:52:18;;;;;;;1.80;1.70;;;12.30;99.90;;;;;;10511454;28;20231;-82
2023/12/25 13:57:21;;;;;;;1.70;1.60;;;12.30;99.90;;;;;;10526846;28;20208;-83
2023/12/25 14:02:23;;;;;;;1.97;1.87;;;12.30;99.90;;;;;;10542491;28;20218;-83
2023/12/25 14:07:27;;;;;;;1.73;1.70;;;12.40;99.90;;;;;;10553533;28;20216;-84
2023/12/25 14:12:29;;;;;;;1.80;1.80;;;12.30;99.90;;;;;;10554375;28;20216;-82
2023/12/25 14:17:32;;;;;;;1.83;1.80;;;12.30;99.90;;;;;;10540765;28;20247;-81
2023/12/25 14:22:36;;;;;;;1.60;1.60;;;12.30;99.90;;;;;;10558040;28;20192;-83
2023/12/25 14:27:39;;;;;;;1.80;1.80;;;12.30;99.90;;;;;;10541415;28;20192;-83
2023/12/25 14:32:42;;;;;;;2.00;1.90;;;12.20;99.90;;;;;;10564684;28;20215;-88
2023/12/25 14:37:46;;;;;;;1.67;1.57;;;12.20;99.90;;;;;;10559582;28;20256;-84
2023/12/25 14:42:48;;;;;;;1.83;1.73;;;12.30;99.90;;;;;;10579423;28;20338;-86
2023/12/25 14:47:51;;;;;;;1.40;1.40;;;12.30;99.90;;;;;;10552531;28;20188;-80
2023/12/25 14:53:00;;;;;;;1.87;1.77;;;12.30;99.90;;;;;;10547139;28;20224;-80
2023/12/25 14:58:02;;;;;;;8.53;7.60;;;12.30;99.90;;;;;;10528165;28;20211;-83
2023/12/25 15:03:05;;;;;;;2.70;2.50;;;12.30;99.90;;;;;;10546926;28;20216;-83
2023/12/25 15:08:09;;;;;;;2.20;2.10;;;12.40;99.90;;;;;;10513646;28;20193;-81
2023/12/25 15:13:12;;;;;;;1.70;1.60;;;12.30;99.90;;;;;;10542486;28;20219;-83
2023/12/25 15:18:15;;;;;;;3.00;2.10;;;12.30;99.90;;;;;;10511599;28;20193;-82
2023/12/25 15:23:19;;;;;;;2.00;1.90;;;12.30;99.90;;;;;;10548324;28;20215;-82
2023/12/25 15:28:22;;;;;;;1.93;1.83;;;12.30;99.90;;;;;;10532536;28;20205;-82
2023/12/25 15:33:24;;;;;;;2.37;2.20;;;12.30;99.90;;;;;;10547543;28;20223;-82
2023/12/25 15:38:28;;;;;;;1.90;1.80;;;12.30;99.90;;;;;;10533677;28;20579;-83
2023/12/25 15:43:31;;;;;;;1.80;1.70;;;12.30;99.90;;;;;;10546253;28;20211;-82
2023/12/25 15:48:33;;;;;;;2.00;1.90;;;12.30;99.90;;;;;;10515678;28;20203;-83
2023/12/25 15:53:37;;;;;;;2.57;2.37;;;12.20;99.90;;;;;;10547563;28;20228;-83
2023/12/25 15:58:40;;;;;;;2.53;2.43;;;12.20;99.90;;;;;;10530006;28;20199;-82
2023/12/25 16:03:43;;;;;;;2.40;2.20;;;12.20;99.90;;;;;;10549302;28;20212;-83
2023/12/25 16:08:46;;;;;;;2.20;2.10;;;12.10;99.90;;;;;;10534133;28;20188;-82
2023/12/25 16:13:49;;;;;;;2.10;2.00;;;12.10;99.90;;;;;;10545630;28;20227;-82
2023/12/25 16:18:51;;;;;;;2.40;2.30;;;12.00;99.90;;;;;;10532425;28;20223;-83
2023/12/25 16:23:55;;;;;;;2.20;2.10;;;12.00;99.90;;;;;;10548401;28;20269;-82
2023/12/25 16:28:58;;;;;;;1.97;1.87;;;12.00;99.90;;;;;;10528541;28;20200;-82
2023/12/25 16:34:01;;;;;;;2.57;2.37;;;12.00;99.90;;;;;;10558831;28;20241;-83
2023/12/25 16:39:04;;;;;;;2.00;1.90;;;12.00;99.90;;;;;;10530816;28;20201;-83
2023/12/25 16:44:07;;;;;;;3.33;2.00;;;12.00;99.90;;;;;;10555334;28;20253;-83
2023/12/25 16:49:10;;;;;;;2.17;2.07;;;12.00;99.90;;;;;;10536722;28;20205;-85
2023/12/25 16:54:15;;;;;;;1.80;1.70;;;12.00;99.90;;;;;;10534559;28;20273;-82
2023/12/25 16:59:18;;;;;;;2.67;2.47;;;12.00;99.90;;;;;;10528466;28;20262;-85
2023/12/25 17:04:20;;;;;;;2.07;1.97;;;11.90;99.90;;;;;;10534923;28;20199;-84
2023/12/25 17:09:24;;;;;;;2.00;1.90;;;11.90;99.90;;;;;;10509802;28;20204;-84
2023/12/25 17:14:32;;;;;;;1.90;1.80;;;11.90;99.90;;;;;;10528149;28;20269;-85
2023/12/25 17:19:34;;;;;;;1.90;1.80;;;11.90;99.90;;;;;;10519639;28;20189;-85
2023/12/25 17:24:39;;;;;;;2.27;2.10;;;11.80;99.90;;;;;;10523905;28;20215;-84
2023/12/25 17:29:41;;;;;;;2.13;1.90;;;11.70;99.90;;;;;;10525735;28;20193;-84
2023/12/25 17:34:44;;;;;;;1.60;1.60;;;11.70;99.90;;;;;;10531412;28;20219;-85
2023/12/25 17:39:50;;;;;;;2.03;1.93;;;11.50;99.90;;;;;;10519460;28;20194;-85
2023/12/25 17:44:53;;;;;;;2.00;1.90;;;11.50;99.90;;;;;;10506724;28;20215;-84
2023/12/25 17:49:56;;;;;;;1.90;1.80;;;11.40;99.90;;;;;;10526606;28;20615;-84
2023/12/25 17:55:00;;;;;;;2.03;1.93;;;11.40;99.90;;;;;;10534502;28;20564;-78
2023/12/25 18:00:05;;;;;;;1.83;1.73;;;11.40;99.90;;;;;;10537518;28;20584;-80
2023/12/25 18:05:14;;;;;;;2.60;2.50;;;11.30;99.90;;;;;;10543413;28;20345;-80
2023/12/25 18:10:18;;;;;;;2.87;2.30;;;11.30;99.90;;;;;;10537716;28;20201;-83
2023/12/25 18:15:21;;;;;;;2.00;1.90;;;11.20;99.90;;;;;;10537797;28;20219;-80
2023/12/25 18:20:23;;;;;;;1.40;1.40;;;11.20;99.90;;;;;;10531992;28;20208;-81
2023/12/25 18:25:27;;;;;;;2.20;2.00;;;11.20;99.90;;;;;;10535769;28;20215;-80
2023/12/25 18:30:29;;;;;;;2.20;2.10;;;11.20;99.90;;;;;;10516250;28;20196;-80
2023/12/25 18:35:32;;;;;;;2.20;2.10;;;11.20;99.90;;;;;;10535449;28;20232;-80
2023/12/25 18:40:35;;;;;;;2.37;2.27;;;11.30;99.80;;;;;;10536616;28;20204;-81
2023/12/25 18:45:38;;;;;;;2.17;2.07;;;11.30;99.60;;;;;;10538759;28;20227;-81
2023/12/25 18:55:52;;;;;;;2.97;2.77;;;11.40;99.50;;;;;;10497590;28;20212;-79
2023/12/25 19:00:55;;;;;;;3.87;3.57;;;11.40;99.40;;;;;;10499539;28;20196;-78
2023/12/25 19:05:57;;;;;;;3.10;2.80;;;11.40;99.20;;;;;;10499723;28;20189;-80
2023/12/25 19:11:02;;;;;;;2.70;2.50;;;11.30;99.00;;;;;;10498705;28;20224;-79
2023/12/25 19:16:06;;;;;;;2.70;2.50;;;11.30;99.10;;;;;;10500698;28;20212;-79
2023/12/25 19:21:09;;;;;;;2.77;2.57;;;11.30;98.90;;;;;;10500439;28;20231;-79
2023/12/25 19:26:14;;;;;;;3.20;2.80;;;11.20;99.00;;;;;;10501325;28;20200;-79
2023/12/25 19:31:17;;;;;;;3.30;3.00;;;11.20;99.00;;;;;;10500690;28;20220;-79
2023/12/25 19:36:19;;;;;;;2.87;2.67;;;11.20;99.00;;;;;;10500901;28;20224;-79
2023/12/25 19:41:23;;;;;;;3.00;2.60;;;11.20;98.80;;;;;;10503189;28;20220;-80
2023/12/25 19:46:27;;;;;;;3.80;2.60;;;11.20;98.40;;;;;;10502838;28;20197;-79
2023/12/25 19:51:29;;;;;;;5.90;2.60;;;11.10;98.50;;;;;;10501542;28;20216;-79
2023/12/25 19:56:33;;;;;;;2.93;2.60;;;11.10;98.40;;;;;;10501640;28;20223;-80
2023/12/25 20:01:37;;;;;;;3.17;2.87;;;11.10;98.40;;;;;;10500127;28;20217;-79
2023/12/25 20:06:40;;;;;;;2.60;2.40;;;11.10;98.50;;;;;;10501833;28;20201;-79
2023/12/25 20:11:44;;;;;;;2.80;2.60;;;11.10;98.20;;;;;;10499549;28;20309;-79
2023/12/25 20:16:47;;;;;;;2.80;2.60;;;11.10;98.50;;;;;;10500096;28;20220;-79
2023/12/25 20:21:50;;;;;;;2.50;2.30;;;11.00;98.30;;;;;;10498375;28;20231;-79
2023/12/25 20:26:55;;;;;;;2.40;2.17;;;11.10;98.30;;;;;;10498352;28;20192;-78
2023/12/25 20:31:58;;;;;;;2.57;2.33;;;11.10;98.00;;;;;;10497191;28;20221;-79
2023/12/25 20:37:00;;;;;;;2.70;2.50;;;11.10;97.80;;;;;;10497663;28;20227;-78
2023/12/25 20:42:04;;;;;;;11.00;9.83;;;11.10;98.00;;;;;;10496708;28;20224;-79
2023/12/25 20:47:07;;;;;;;2.23;2.13;;;11.10;98.10;;;;;;10496609;28;20258;-78
2023/12/25 20:52:09;;;;;;;3.07;2.77;;;11.10;97.90;;;;;;10497109;28;20216;-78
2023/12/25 20:57:14;;;;;;;2.43;2.30;;;11.20;97.60;;;;;;10495732;28;20682;-78
2023/12/25 21:02:20;;;;;;;2.00;1.90;;;11.20;98.00;;;;;;10495557;28;20212;-79
2023/12/25 21:07:24;;;;;;;2.37;2.07;;;11.20;97.60;;;;;;10495258;28;20185;-78
2023/12/25 21:12:28;;;;;;;3.63;2.80;;;11.20;97.60;;;;;;10494250;28;20212;-79
2023/12/25 21:17:30;;;;;;;2.20;1.87;;;11.10;97.70;;;;;;10494078;28;20228;-78
2023/12/25 21:22:34;;;;;;;3.37;3.07;;;11.10;97.60;;;;;;10494421;28;20223;-78
2023/12/25 21:27:38;;;;;;;2.20;2.00;;;11.10;97.70;;;;;;10493236;28;20200;-78
2023/12/25 21:32:40;;;;;;;4.10;2.70;;;11.20;97.90;;;;;;10499238;28;20705;-79
2023/12/25 21:37:43;;;;;;;3.07;1.80;;;11.20;97.90;;;;;;10501626;28;20706;-79
2023/12/25 21:42:46;;;;;;;1.90;1.80;;;11.10;98.20;;;;;;10501689;28;20224;-79
2023/12/25 21:47:49;;;;;;;2.90;2.60;;;11.10;98.50;;;;;;10501999;28;20712;-80
2023/12/25 21:52:51;;;;;;;2.30;2.13;;;11.10;98.60;;;;;;10502039;28;20232;-78
2023/12/25 21:57:55;;;;;;;3.07;2.10;;;11.10;98.60;;;;;;10502294;28;20264;-79
2023/12/25 22:02:58;;;;;;;2.77;2.33;;;11.10;98.50;;;;;;10503366;28;20338;-78
2023/12/25 22:08:00;;;;;;;3.13;2.00;;;11.00;98.80;;;;;;10501330;28;20188;-79
2023/12/25 22:13:05;;;;;;;3.13;2.13;;;11.00;98.90;;;;;;10502313;28;20204;-79
2023/12/25 22:18:07;;;;;;;2.40;2.20;;;11.00;98.90;;;;;;10501782;28;20227;-78
2023/12/25 22:23:10;;;;;;;2.40;2.03;;;10.90;99.00;;;;;;10502418;28;20658;-78
2023/12/25 22:28:13;;;;;;;2.30;2.10;;;10.80;99.10;;;;;;10501076;28;20200;-79
2023/12/25 22:33:16;;;;;;;3.10;2.00;;;10.80;99.20;;;;;;10501216;28;20212;-79
2023/12/25 22:38:19;;;;;;;15.23;12.83;;;10.80;99.20;;;;;;10501179;28;20204;-79
2023/12/25 22:43:23;;;;;;;3.50;2.87;;;10.70;99.50;;;;;;10499685;28;20759;-79
2023/12/25 22:48:25;;;;;;;3.60;2.33;;;10.70;99.50;;;;;;10497920;28;20246;-79
2023/12/25 22:53:28;;;;;;;4.27;2.33;;;10.60;99.50;;;;;;10500546;28;20224;-79
2023/12/25 22:58:32;;;;;;;2.43;2.20;;;10.60;99.80;;;;;;10499410;28;20209;-79
2023/12/25 23:03:34;;;;;;;4.30;2.57;;;10.50;99.60;;;;;;10497323;28;20220;-79
2023/12/25 23:08:37;;;;;;;2.97;2.77;;;10.50;99.80;;;;;;10498282;28;20201;-79
2023/12/25 23:13:41;;;;;;;2.20;2.10;;;10.40;99.90;;;;;;10498094;28;20654;-79
2023/12/25 23:18:44;;;;;;;3.40;3.17;;;10.40;99.90;;;;;;10499380;28;20228;-78
2023/12/25 23:23:46;;;;;;;3.50;2.70;;;10.40;99.90;;;;;;10498994;28;20224;-79
2023/12/25 23:28:53;;;;;;;5.60;2.53;;;10.40;99.90;;;;;;10498583;28;20207;-79
2023/12/25 23:33:55;;;;;;;3.57;2.87;;;10.40;99.90;;;;;;10497688;28;20223;-79
2023/12/25 23:38:58;;;;;;;2.70;2.27;;;10.40;99.90;;;;;;10498462;28;20200;-79
2023/12/25 23:44:02;;;;;;;2.30;2.10;;;10.30;99.90;;;;;;10499442;28;20213;-79
2023/12/25 23:49:04;;;;;;;3.90;2.50;;;10.40;99.90;;;;;;10499280;28;20690;-79
2023/12/25 23:54:07;;;;;;;2.90;2.70;;;10.30;99.90;;;;;;10497629;28;20652;-79
2023/12/25 23:59:11;;;;;;;3.37;2.73;;;10.30;99.90;;;;;;10498444;28;20698;-79
